createdAt,value
2018-06-15T00:02:07.003Z,3.37
2018-06-15T00:04:37.454Z,3.67
2018-06-15T00:07:10.418Z,4.13
2018-06-15T00:20:30.253Z,5.23
2018-06-15T00:22:59.456Z,3.67
2018-06-15T00:25:28.672Z,4.10
2018-06-15T00:27:58.258Z,4.47
2018-06-15T00:30:28.087Z,3.00
2018-06-15T00:33:02.305Z,3.90
2018-06-15T00:35:31.352Z,3.40
2018-06-15T00:38:01.218Z,3.50
2018-06-15T00:40:31.034Z,2.70
2018-06-15T00:43:01.466Z,3.43
2018-06-15T00:45:30.257Z,4.23
2018-06-15T00:47:59.766Z,4.23
2018-06-15T00:50:29.892Z,5.73
2018-06-15T00:52:59.298Z,3.70
2018-06-15T01:07:29.523Z,8.03
2018-06-15T01:10:05.798Z,9.13
2018-06-15T01:12:43.088Z,7.10
2018-06-15T01:15:13.621Z,8.33
2018-06-15T01:17:43.501Z,5.97
2018-06-15T01:20:12.280Z,5.20
2018-06-15T01:22:44.298Z,3.60
2018-06-15T01:27:49.558Z,7.70
2018-06-15T01:30:18.350Z,4.33
2018-06-15T01:32:47.143Z,4.93
2018-06-15T01:35:16.918Z,3.87
2018-06-15T01:37:45.858Z,3.97
2018-06-15T01:40:14.647Z,2.93
2018-06-15T01:42:43.388Z,5.20
2018-06-15T01:45:12.438Z,3.70
2018-06-15T01:47:44.504Z,3.57
2018-06-15T01:50:13.707Z,2.77
2018-06-15T01:52:42.859Z,4.17
2018-06-15T01:55:12.265Z,5.47
2018-06-15T01:57:42.542Z,3.03
2018-06-15T02:00:12.770Z,4.63
2018-06-15T02:02:43.814Z,3.37
2018-06-15T02:05:13.114Z,4.57
2018-06-15T02:07:43.646Z,3.80
2018-06-15T02:13:04.157Z,4.67
2018-06-15T02:15:34.379Z,3.90
2018-06-15T02:18:05.859Z,4.40
2018-06-15T02:20:35.649Z,2.67
2018-06-15T02:23:04.620Z,3.97
2018-06-15T02:25:33.644Z,2.97
2018-06-15T02:28:02.745Z,3.87
2018-06-15T02:30:32.559Z,3.60
2018-06-15T02:33:02.292Z,3.23
2018-06-15T02:35:31.577Z,4.00
2018-06-15T02:38:01.601Z,3.50
2018-06-15T02:40:30.493Z,2.40
2018-06-15T02:42:59.699Z,3.50
2018-06-15T02:45:40.007Z,3.50
2018-06-15T02:48:10.155Z,4.00
2018-06-15T02:50:38.688Z,8.97
2018-06-15T02:53:07.248Z,3.30
2018-06-15T02:55:36.155Z,4.73
2018-06-15T02:58:06.064Z,4.93
2018-06-15T03:00:34.853Z,5.07
2018-06-15T03:03:03.957Z,4.20
2018-06-15T03:05:33.087Z,4.50
2018-06-15T03:08:02.157Z,3.17
2018-06-15T03:10:38.825Z,3.77
2018-06-15T03:13:12.838Z,2.27
2018-06-15T03:15:41.735Z,3.53
2018-06-15T03:18:11.451Z,4.30
2018-06-15T03:20:41.774Z,2.53
2018-06-15T03:23:17.216Z,2.73
2018-06-15T03:25:47.345Z,4.07
2018-06-15T03:28:17.638Z,5.03
2018-06-15T03:30:48.820Z,4.37
2018-06-15T03:33:25.794Z,4.07
2018-06-15T03:35:57.553Z,2.70
2018-06-15T03:38:29.416Z,3.90
2018-06-15T03:41:05.477Z,3.77
2018-06-15T03:43:35.700Z,4.90
2018-06-15T03:46:08.630Z,4.77
2018-06-15T03:48:40.580Z,3.60
2018-06-15T03:51:13.475Z,3.37
2018-06-15T03:53:45.403Z,3.80
2018-06-15T04:05:45.424Z,7.43
2018-06-15T04:08:14.419Z,3.57
2018-06-15T04:10:44.235Z,3.77
2018-06-15T04:13:12.920Z,5.70
2018-06-15T04:15:42.009Z,3.07
2018-06-15T04:18:10.848Z,3.43
2018-06-15T04:20:39.716Z,3.43
2018-06-15T04:23:09.862Z,2.77
2018-06-15T04:25:39.146Z,3.60
2018-06-15T04:28:08.152Z,2.97
2018-06-15T04:30:37.429Z,4.33
2018-06-15T04:33:06.242Z,3.97
2018-06-15T04:35:35.748Z,5.90
2018-06-15T04:38:04.569Z,4.60
2018-06-15T04:40:33.221Z,5.60
2018-06-15T04:43:01.395Z,5.67
2018-06-15T04:45:30.145Z,3.23
2018-06-15T04:47:59.808Z,15.97
2018-06-15T04:55:01.934Z,4.93
2018-06-15T05:10:40.947Z,2.60
2018-06-15T05:19:01.709Z,3.63
2018-06-15T05:21:41.150Z,4.27
2018-06-15T05:24:21.252Z,5.57
2018-06-15T05:26:57.497Z,5.57
2018-06-15T05:50:28.792Z,5.43
2018-06-15T06:04:33.249Z,5.67
2018-06-15T06:07:06.029Z,8.07
2018-06-15T06:09:39.427Z,5.30
2018-06-15T06:12:10.265Z,5.57
2018-06-15T06:15:05.256Z,4.90
2018-06-15T06:18:10.486Z,5.93
2018-06-15T06:20:40.402Z,4.27
2018-06-15T06:23:14.635Z,6.03
2018-06-15T06:25:55.559Z,3.27
2018-06-15T06:28:28.103Z,6.70
2018-06-15T06:31:35.232Z,7.30
2018-06-15T06:37:20.502Z,19.00
2018-06-15T06:40:59.496Z,4.00
2018-06-15T06:43:49.043Z,6.17
2018-06-15T06:46:17.966Z,5.77
2018-06-15T06:48:47.339Z,2.63
2018-06-15T06:51:16.353Z,1.37
2018-06-15T06:53:44.782Z,4.90
2018-06-15T06:56:13.015Z,3.30
2018-06-15T06:58:41.482Z,1.70
2018-06-15T07:01:10.366Z,1.70
2018-06-15T07:03:39.627Z,5.03
2018-06-15T07:06:08.051Z,3.73
2018-06-15T07:08:36.854Z,2.83
2018-06-15T07:11:05.245Z,3.40
2018-06-15T07:13:33.718Z,1.97
2018-06-15T07:16:02.091Z,2.70
2018-06-15T07:18:31.443Z,2.63
2018-06-15T07:21:02.196Z,2.33
2018-06-15T07:23:30.382Z,2.73
2018-06-15T07:25:59.809Z,3.83
2018-06-15T07:28:29.383Z,1.50
2018-06-15T07:30:58.968Z,2.40
2018-06-15T07:33:27.765Z,3.23
2018-06-15T07:35:57.536Z,1.97
2018-06-15T07:38:25.697Z,1.30
2018-06-15T07:40:55.108Z,3.23
2018-06-15T07:43:23.510Z,3.83
2018-06-15T07:45:51.852Z,1.83
2018-06-15T07:48:21.230Z,2.43
2018-06-15T07:50:50.050Z,2.90
2018-06-15T07:53:18.423Z,3.30
2018-06-15T07:55:46.765Z,1.93
2018-06-15T07:58:15.136Z,1.27
2018-06-15T08:00:44.171Z,3.63
2018-06-15T08:03:13.081Z,7.03
2018-06-15T08:05:41.313Z,3.80
2018-06-15T08:08:09.684Z,5.53
2018-06-15T08:10:38.546Z,1.03
2018-06-15T08:13:06.934Z,2.63
2018-06-15T08:15:35.177Z,1.60
2018-06-15T08:18:03.950Z,1.23
2018-06-15T08:20:32.692Z,2.80
2018-06-15T08:23:00.966Z,2.83
2018-06-15T08:25:29.295Z,3.60
2018-06-15T08:27:57.542Z,2.23
2018-06-15T08:30:25.922Z,1.97
2018-06-15T08:32:54.381Z,0.50
2018-06-15T08:35:23.130Z,1.57
2018-06-15T08:37:52.033Z,2.80
2018-06-15T08:40:20.919Z,2.87
2018-06-15T08:42:50.103Z,1.37
2018-06-15T08:45:18.475Z,1.83
2018-06-15T08:47:47.891Z,1.97
2018-06-15T08:50:17.461Z,2.33
2018-06-15T08:52:46.518Z,3.00
2018-06-15T08:55:15.417Z,4.23
2018-06-15T08:57:43.653Z,2.47
2018-06-15T09:00:12.462Z,3.83
2018-06-15T09:02:41.628Z,1.63
2018-06-15T09:05:09.844Z,1.63
2018-06-15T09:07:38.113Z,2.77
2018-06-15T09:10:06.890Z,2.00
2018-06-15T09:12:35.842Z,1.57
2018-06-15T09:15:05.214Z,1.40
2018-06-15T09:17:34.493Z,1.43
2018-06-15T09:20:04.316Z,1.60
2018-06-15T09:22:32.616Z,0.77
2018-06-15T09:25:00.798Z,1.60
2018-06-15T09:27:29.004Z,4.43
2018-06-15T09:29:58.621Z,7.03
2018-06-15T09:32:26.956Z,7.63
2018-06-15T09:34:55.874Z,3.30
2018-06-15T09:37:24.288Z,2.93
2018-06-15T09:39:52.622Z,2.83
2018-06-15T09:42:21.062Z,4.80
2018-06-15T09:44:51.062Z,2.47
2018-06-15T09:47:19.402Z,2.33
2018-06-15T09:49:48.214Z,2.77
2018-06-15T09:52:17.826Z,4.03
2018-06-15T09:54:46.139Z,3.37
2018-06-15T09:57:14.512Z,4.90
2018-06-15T09:59:43.014Z,3.47
2018-06-15T10:02:12.056Z,1.30
2018-06-15T10:04:40.350Z,2.87
2018-06-15T10:07:08.768Z,6.03
2018-06-15T10:09:37.691Z,4.20
2018-06-15T10:12:06.524Z,4.23
2018-06-15T10:14:34.857Z,3.00
2018-06-15T10:17:03.177Z,5.67
2018-06-15T10:19:31.410Z,7.00
2018-06-15T10:22:00.809Z,1.53
2018-06-15T10:24:29.978Z,0.60
2018-06-15T10:26:58.185Z,1.90
2018-06-15T10:29:27.672Z,6.20
2018-06-15T10:31:56.186Z,3.60
2018-06-15T10:34:25.854Z,2.67
2018-06-15T10:36:54.118Z,3.90
2018-06-15T10:39:22.602Z,5.10
2018-06-15T10:41:51.117Z,1.80
2018-06-15T10:44:20.424Z,3.87
2018-06-15T10:46:49.149Z,5.53
2018-06-15T10:49:17.401Z,1.23
2018-06-15T10:51:46.066Z,2.20
2018-06-15T10:54:14.769Z,2.37
2018-06-15T10:56:43.085Z,2.60
2018-06-15T10:59:11.335Z,3.00
2018-06-15T11:01:40.145Z,3.10
2018-06-15T11:04:08.493Z,5.53
2018-06-15T11:06:36.771Z,5.53
2018-06-15T11:09:07.745Z,6.90
2018-06-15T11:11:37.249Z,3.77
2018-06-15T11:14:06.143Z,6.87
2018-06-15T11:16:34.522Z,3.07
2018-06-15T11:19:03.309Z,4.80
2018-06-15T11:21:31.765Z,4.33
2018-06-15T11:23:59.981Z,6.70
2018-06-15T11:26:28.143Z,5.10
2018-06-15T11:28:56.675Z,4.83
2018-06-15T11:31:24.879Z,2.07
2018-06-15T11:33:53.196Z,4.27
2018-06-15T11:36:21.543Z,3.07
2018-06-15T11:38:49.698Z,6.77
2018-06-15T11:41:18.332Z,4.30
2018-06-15T11:43:47.185Z,3.70
2018-06-15T11:46:15.510Z,4.80
2018-06-15T11:48:43.810Z,2.53
2018-06-15T11:51:12.637Z,2.83
2018-06-15T11:53:41.709Z,3.70
2018-06-15T11:56:10.633Z,3.90
2018-06-15T11:58:39.008Z,2.20
2018-06-15T12:01:07.407Z,3.03
2018-06-15T12:03:36.881Z,5.90
2018-06-15T12:06:05.861Z,1.47
2018-06-15T12:08:34.016Z,3.87
2018-06-15T12:11:02.335Z,4.93
2018-06-15T12:13:30.779Z,4.87
2018-06-15T12:15:58.986Z,2.97
2018-06-15T12:18:27.589Z,2.80
2018-06-15T12:20:56.319Z,2.80
2018-06-15T12:23:25.675Z,1.33
2018-06-15T12:25:54.148Z,7.20
2018-06-15T12:28:22.941Z,6.43
2018-06-15T12:30:51.567Z,1.93
2018-06-15T12:33:20.054Z,9.57
2018-06-15T12:35:48.632Z,4.03
2018-06-15T12:38:17.148Z,3.70
2018-06-15T12:40:45.713Z,4.47
2018-06-15T12:43:14.201Z,3.50
2018-06-15T12:45:42.736Z,2.07
2018-06-15T12:48:11.863Z,5.53
2018-06-15T12:50:40.732Z,3.57
2018-06-15T12:53:09.402Z,2.27
2018-06-15T12:55:37.967Z,1.70
2018-06-15T12:58:06.377Z,1.23
2018-06-15T13:00:35.355Z,3.10
2018-06-15T13:03:03.680Z,2.40
2018-06-15T13:05:32.011Z,1.97
2018-06-15T13:08:01.019Z,2.03
2018-06-15T13:10:29.571Z,4.07
2018-06-15T13:12:58.498Z,3.00
2018-06-15T13:15:26.967Z,3.57
2018-06-15T13:17:55.474Z,2.50
2018-06-15T13:20:24.129Z,2.43
2018-06-15T13:22:52.758Z,4.60
2018-06-15T13:25:21.107Z,1.03
2018-06-15T13:27:49.997Z,3.20
2018-06-15T13:30:19.085Z,0.63
2018-06-15T13:32:48.742Z,3.27
2018-06-15T13:35:17.643Z,4.43
2018-06-15T13:37:46.539Z,1.17
2018-06-15T13:40:15.398Z,1.97
2018-06-15T13:42:43.777Z,2.70
2018-06-15T13:45:12.387Z,6.27
2018-06-15T13:47:42.087Z,0.73
2018-06-15T13:50:11.587Z,4.87
2018-06-15T13:52:40.672Z,4.30
2018-06-15T13:55:10.004Z,2.83
2018-06-15T13:57:39.087Z,1.57
2018-06-15T14:00:07.234Z,1.43
2018-06-15T14:02:36.165Z,3.23
2018-06-15T14:05:05.264Z,2.50
2018-06-15T14:07:33.969Z,5.20
2018-06-15T14:10:02.423Z,5.20
2018-06-15T14:12:30.895Z,8.80
2018-06-15T14:14:59.528Z,4.20
2018-06-15T14:17:28.533Z,4.47
2018-06-15T14:19:58.169Z,6.40
2018-06-15T14:22:27.676Z,5.83
2018-06-15T14:24:56.985Z,6.63
2018-06-15T14:27:26.542Z,5.50
2018-06-15T14:29:55.536Z,6.90
2018-06-15T14:32:30.573Z,5.03
2018-06-15T14:34:58.870Z,5.93
2018-06-15T14:37:30.716Z,5.97
2018-06-15T14:40:00.160Z,3.27
2018-06-15T14:42:29.330Z,5.43
2018-06-15T14:44:58.221Z,8.73
2018-06-15T14:47:28.163Z,7.97
2018-06-15T14:50:00.234Z,4.97
2018-06-15T14:52:29.968Z,4.90
2018-06-15T14:55:02.102Z,4.27
2018-06-15T14:57:31.299Z,4.40
2018-06-15T14:59:59.878Z,3.87
2018-06-15T15:02:30.337Z,4.57
2018-06-15T15:04:59.601Z,6.10
2018-06-15T15:07:31.066Z,4.47
2018-06-15T15:09:59.348Z,6.83
2018-06-15T15:12:28.203Z,4.33
2018-06-15T15:14:57.012Z,4.83
2018-06-15T15:17:25.912Z,4.53
2018-06-15T15:19:54.785Z,3.83
2018-06-15T15:22:23.525Z,4.60
2018-06-15T15:24:52.773Z,5.30
2018-06-15T15:27:21.879Z,3.37
2018-06-15T15:29:50.704Z,1.83
2018-06-15T15:32:18.989Z,0.67
2018-06-15T15:34:47.288Z,0.93
2018-06-15T15:37:15.546Z,2.07
2018-06-15T15:39:43.848Z,3.00
2018-06-15T15:42:13.390Z,3.67
2018-06-15T15:44:41.725Z,4.63
2018-06-15T15:47:11.157Z,1.23
2018-06-15T15:49:40.025Z,2.67
2018-06-15T15:52:08.770Z,4.13
2018-06-15T15:54:37.610Z,3.47
2018-06-15T15:57:05.898Z,2.07
2018-06-15T15:59:34.274Z,4.97
2018-06-15T16:02:03.394Z,4.23
2018-06-15T16:04:31.761Z,8.07
2018-06-15T16:07:00.825Z,5.60
2018-06-15T16:09:29.253Z,7.27
2018-06-15T16:11:58.146Z,9.57
2018-06-15T16:14:26.523Z,7.87
2018-06-15T16:16:54.914Z,18.37
2018-06-15T16:19:23.931Z,10.07
2018-06-15T16:21:52.286Z,12.17
2018-06-15T16:24:20.505Z,22.13
2018-06-15T16:26:49.509Z,8.07
2018-06-15T16:29:18.263Z,14.00
2018-06-15T16:31:46.587Z,11.60
2018-06-15T16:34:15.612Z,9.37
2018-06-15T16:36:43.913Z,10.83
2018-06-15T16:39:12.340Z,7.50
2018-06-15T16:41:40.694Z,12.70
2018-06-15T16:44:09.777Z,12.47
2018-06-15T16:46:38.718Z,15.87
2018-06-15T16:49:07.310Z,16.87
2018-06-15T16:51:35.600Z,13.43
2018-06-15T16:54:04.593Z,12.10
2018-06-15T16:56:32.826Z,23.77
2018-06-15T16:59:01.058Z,18.67
2018-06-15T17:01:30.035Z,12.63
2018-06-15T17:03:58.893Z,8.23
2018-06-15T17:06:27.820Z,13.60
2018-06-15T17:08:56.324Z,14.93
2018-06-15T17:11:24.762Z,11.43
2018-06-15T17:13:53.094Z,9.23
2018-06-15T17:16:21.475Z,17.83
2018-06-15T17:18:50.982Z,6.37
2018-06-15T17:21:20.351Z,9.63
2018-06-15T17:23:49.234Z,11.07
2018-06-15T17:26:18.861Z,4.77
2018-06-15T17:28:47.170Z,3.63
2018-06-15T17:31:16.433Z,1.97
2018-06-15T17:33:44.722Z,4.10
2018-06-15T17:36:13.311Z,3.50
2018-06-15T17:38:41.641Z,4.10
2018-06-15T17:41:11.335Z,4.67
2018-06-15T17:43:40.098Z,1.83
2018-06-15T17:46:08.693Z,1.40
2018-06-15T17:48:37.787Z,1.30
2018-06-15T17:51:06.029Z,1.27
2018-06-15T17:53:35.000Z,1.33
2018-06-15T17:56:04.490Z,2.50
2018-06-15T17:58:32.747Z,3.13
2018-06-15T18:01:01.074Z,3.47
2018-06-15T18:03:29.352Z,6.30
2018-06-15T18:05:57.833Z,2.77
2018-06-15T18:08:26.210Z,4.83
2018-06-15T18:10:54.513Z,3.20
2018-06-15T18:13:23.150Z,4.40
2018-06-15T18:15:51.963Z,4.40
2018-06-15T18:18:20.187Z,5.50
2018-06-15T18:20:48.322Z,4.37
2018-06-15T18:23:16.482Z,2.97
2018-06-15T18:25:44.806Z,3.77
2018-06-15T18:28:13.150Z,2.60
2018-06-15T18:30:41.275Z,2.98
2018-06-15T18:33:09.546Z,5.77
2018-06-15T18:35:37.684Z,3.30
2018-06-15T18:38:05.813Z,4.03
2018-06-15T18:40:34.216Z,2.87
2018-06-15T18:43:02.362Z,4.17
2018-06-15T18:45:30.515Z,3.20
2018-06-15T18:47:58.711Z,3.27
2018-06-15T18:50:26.904Z,3.80
2018-06-15T18:52:55.058Z,4.27
2018-06-15T18:55:23.263Z,3.13
2018-06-15T18:57:51.489Z,2.43
2018-06-15T19:00:19.748Z,5.60
2018-06-15T19:02:48.709Z,2.77
2018-06-15T19:05:17.983Z,3.87
2018-06-15T19:07:46.718Z,4.33
2018-06-15T19:10:15.039Z,4.67
2018-06-15T19:12:43.602Z,3.30
2018-06-15T19:15:12.000Z,5.57
2018-06-15T19:17:40.792Z,7.50
2018-06-15T19:20:09.296Z,4.30
2018-06-15T19:22:37.973Z,2.63
2018-06-15T19:25:06.820Z,3.97
2018-06-15T19:27:35.979Z,3.83
2018-06-15T19:30:06.002Z,3.63
2018-06-15T19:32:44.721Z,1.33
2018-06-15T19:38:26.924Z,3.43
2018-06-15T19:40:56.739Z,1.80
2018-06-15T19:46:24.307Z,1.53
2018-06-15T19:51:42.158Z,2.90
2018-06-15T19:54:14.529Z,1.23
2018-06-15T19:57:08.907Z,2.80
2018-06-15T19:59:39.645Z,3.33
2018-06-15T20:02:08.142Z,1.47
2018-06-15T20:04:36.464Z,4.43
2018-06-15T20:07:04.977Z,2.93
2018-06-15T20:09:33.303Z,1.37
2018-06-15T20:12:01.606Z,2.93
2018-06-15T20:14:29.881Z,4.87
2018-06-15T20:16:58.665Z,1.87
2018-06-15T20:19:26.974Z,2.47
2018-06-15T20:21:55.570Z,1.83
2018-06-15T20:24:24.134Z,5.73
2018-06-15T20:26:53.006Z,3.70
2018-06-15T20:29:22.763Z,4.97
2018-06-15T20:31:52.807Z,3.83
2018-06-15T20:34:21.644Z,3.90
2018-06-15T20:41:20.836Z,3.97
2018-06-15T20:43:53.328Z,2.60
2018-06-15T20:51:55.648Z,3.90
2018-06-15T20:56:26.320Z,5.53
2018-06-15T20:59:11.081Z,3.00
2018-06-15T21:01:44.672Z,2.10
2018-06-15T21:04:14.302Z,3.73
2018-06-15T21:06:43.494Z,3.63
2018-06-15T21:09:13.288Z,4.40
2018-06-15T21:11:44.456Z,2.70
2018-06-15T21:38:16.353Z,4.30
2018-06-15T21:40:48.013Z,4.00
2018-06-15T21:43:18.848Z,6.77
2018-06-15T21:45:49.484Z,5.37
2018-06-15T21:48:20.125Z,4.07
2018-06-15T21:50:52.595Z,4.70
2018-06-15T21:53:21.697Z,5.27
2018-06-15T21:55:53.953Z,5.40
2018-06-15T21:58:30.229Z,3.57
2018-06-15T22:01:05.061Z,4.77
2018-06-15T22:03:41.017Z,3.60
2018-06-15T22:11:21.617Z,7.83
2018-06-15T22:43:50.458Z,3.40
2018-06-15T23:06:39.574Z,4.90
2018-06-15T23:12:15.636Z,5.40
2018-06-15T23:15:00.699Z,6.13
2018-06-15T23:20:14.045Z,8.73
2018-06-15T23:22:52.383Z,4.93
2018-06-15T23:25:26.673Z,2.97
